Terminal Aerodrome Forecast
Issued by NWS Lake Charles, LA

Home | Current Version | Previous Version | Text Only | Print | Product List | Glossary On
Versions: 1 2 3 4 5 6 7 8 9 10 11 12 13 14 15 16 17 18 19 20 21
000
FTUS44 KLCH 191748
TAFLFT
TAF
KLFT 191748Z 1918/2018 12009KT P6SM BKN011 BKN022
     FM192000 12010KT P6SM SCT025
     FM200300 15004KT 5SM BR BKN004
     FM200400 15004KT 1/2SM FG OVC002=

USA.gov is the U.S. government's official web portal to all federal, state and local government web resources and services.